createdAt,value
2019-04-23T00:00:13.569Z,10.30
2019-04-23T00:02:58.609Z,9.78
2019-04-23T00:10:53.888Z,6.95
2019-04-23T00:12:59.393Z,6.62
2019-04-23T00:15:51.728Z,8.98
2019-04-23T00:18:12.444Z,6.92
2019-04-23T00:20:45.996Z,4.75
2019-04-23T00:26:01.690Z,6.83
2019-04-23T00:28:20.552Z,6.50
2019-04-23T00:30:56.264Z,7.58
2019-04-23T01:16:37.378Z,8.75
2019-04-23T01:19:21.265Z,6.03
2019-04-23T01:21:32.629Z,6.57
2019-04-23T01:24:19.074Z,10.40
2019-04-23T01:30:04.778Z,8.28
2019-04-23T01:32:31.746Z,8.75
2019-04-23T01:35:15.325Z,5.00
2019-04-23T01:37:39.783Z,6.67
2019-04-23T01:40:04.289Z,11.30
2019-04-23T01:42:42.027Z,7.72
2019-04-23T01:45:08.057Z,10.23
2019-04-23T01:47:38.374Z,6.60
2019-04-23T01:52:45.654Z,7.10
2019-04-23T01:55:10.250Z,8.83
2019-04-23T02:00:16.118Z,8.13
2019-04-23T02:02:43.109Z,9.18
2019-04-23T02:05:15.698Z,9.18
2019-04-23T02:10:25.845Z,4.92
2019-04-23T02:12:53.467Z,5.58
2019-04-23T02:15:16.824Z,7.25
2019-04-23T02:17:53.287Z,8.50
2019-04-23T02:20:23.933Z,6.03
2019-04-23T02:22:58.648Z,8.70
2019-04-23T02:25:35.689Z,9.30
2019-04-23T02:27:59.328Z,5.10
2019-04-23T02:35:42.785Z,8.25
2019-04-23T02:38:11.828Z,7.35
2019-04-23T02:41:46.902Z,8.83
2019-04-23T02:45:39.883Z,5.65
2019-04-23T02:48:11.155Z,8.45
2019-04-23T02:50:40.120Z,9.20
2019-04-23T02:53:30.778Z,6.80
2019-04-23T02:58:11.111Z,7.83
2019-04-23T03:01:03.944Z,8.43
2019-04-23T03:03:14.048Z,12.23
2019-04-23T03:05:45.571Z,6.67
2019-04-23T03:08:18.509Z,5.30
2019-04-23T03:10:56.152Z,7.00
2019-04-23T03:13:32.117Z,6.10
2019-04-23T03:26:57.397Z,9.43
2019-04-23T03:29:26.076Z,9.40
2019-04-23T03:39:25.447Z,6.12
2019-04-23T03:41:48.497Z,6.07
2019-04-23T03:44:24.493Z,5.70
2019-04-23T03:46:51.425Z,7.58
2019-04-23T03:49:15.105Z,7.72
2019-04-23T03:52:14.164Z,11.30
2019-04-23T03:54:31.960Z,5.87
2019-04-23T03:59:38.409Z,7.95
2019-04-23T04:02:01.830Z,5.00
2019-04-23T04:06:48.054Z,10.73
2019-04-23T04:12:01.686Z,10.33
2019-04-23T04:14:46.317Z,6.60
2019-04-23T04:17:01.330Z,7.90
2019-04-23T04:24:36.658Z,11.08
2019-04-23T04:27:08.054Z,6.22
2019-04-23T04:29:39.639Z,5.12
2019-04-23T04:32:00.820Z,8.20
2019-04-23T04:39:42.807Z,10.38
2019-04-23T04:42:12.036Z,8.65
2019-04-23T04:47:09.842Z,6.25
2019-04-23T04:49:53.333Z,6.92
2019-04-23T04:54:24.631Z,7.37
2019-04-23T04:57:20.324Z,6.30
2019-04-23T05:05:08.787Z,9.33
2019-04-23T05:07:23.753Z,6.72
2019-04-23T05:12:18.393Z,8.33
2019-04-23T05:14:59.142Z,8.55
2019-04-23T05:17:35.870Z,7.90
2019-04-23T05:19:58.830Z,5.30
2019-04-23T05:22:36.176Z,9.53
2019-04-23T05:24:51.323Z,7.28
2019-04-23T05:27:29.290Z,6.72
2019-04-23T05:30:02.833Z,9.23
2019-04-23T05:32:27.266Z,10.78
2019-04-23T05:35:03.505Z,9.70
2019-04-23T05:37:45.176Z,7.30
2019-04-23T05:40:06.638Z,5.33
2019-04-23T05:42:31.766Z,7.22
2019-04-23T05:45:00.775Z,9.83
2019-04-23T05:47:55.350Z,8.08
2019-04-23T05:50:15.573Z,4.67
2019-04-23T05:52:37.921Z,6.25
2019-04-23T05:57:34.521Z,7.95
2019-04-23T06:00:10.663Z,9.48
2019-04-23T06:02:41.880Z,7.67
2019-04-23T06:05:08.777Z,8.38
2019-04-23T06:07:45.700Z,10.58
2019-04-23T06:10:13.384Z,6.92
2019-04-23T06:12:39.980Z,5.45
2019-04-23T06:15:11.554Z,8.05
2019-04-23T06:18:02.326Z,8.33
2019-04-23T06:20:15.397Z,11.95
2019-04-23T06:25:31.200Z,5.30
2019-04-23T06:27:47.983Z,6.53
2019-04-23T06:30:20.237Z,11.55
2019-04-23T06:32:46.430Z,6.95
2019-04-23T06:35:19.201Z,10.95
2019-04-23T06:38:14.660Z,7.00
2019-04-23T06:40:23.048Z,12.60
2019-04-23T06:42:57.934Z,8.50
2019-04-23T06:45:29.307Z,5.80
2019-04-23T06:48:01.865Z,9.90
2019-04-23T06:50:36.672Z,10.70
2019-04-23T06:53:02.440Z,10.78
2019-04-23T06:55:36.040Z,7.30
2019-04-23T06:58:04.599Z,7.28
2019-04-23T07:00:41.910Z,6.45
2019-04-23T07:03:19.686Z,5.50
2019-04-23T07:06:14.893Z,6.60
2019-04-23T07:08:48.526Z,11.95
2019-04-23T07:11:11.083Z,7.95
2019-04-23T07:13:50.764Z,14.70
2019-04-23T07:16:04.600Z,5.90
2019-04-23T07:18:36.148Z,7.80
2019-04-23T07:21:13.474Z,8.75
2019-04-23T07:23:44.903Z,8.08
2019-04-23T07:26:15.506Z,10.98
2019-04-23T07:28:48.544Z,8.50
2019-04-23T07:31:29.626Z,8.70
2019-04-23T07:33:52.820Z,11.05
2019-04-23T07:36:17.129Z,8.13
2019-04-23T07:38:54.723Z,9.05
2019-04-23T07:41:41.458Z,7.45
2019-04-23T07:47:15.682Z,7.28
2019-04-23T07:52:12.949Z,10.82
2019-04-23T07:54:38.752Z,9.90
2019-04-23T07:57:10.708Z,8.45
2019-04-23T08:02:14.524Z,8.83
2019-04-23T08:04:44.661Z,7.53
2019-04-23T08:07:06.631Z,11.93
2019-04-23T08:09:42.797Z,7.42
2019-04-23T08:12:25.083Z,9.55
2019-04-23T08:14:46.905Z,7.78
2019-04-23T08:17:12.351Z,7.05
2019-04-23T08:19:51.324Z,9.55
2019-04-23T08:22:22.165Z,10.15
2019-04-23T08:25:12.965Z,9.73
2019-04-23T08:27:34.837Z,11.90
2019-04-23T08:30:07.643Z,9.20
2019-04-23T08:32:27.784Z,8.75
2019-04-23T08:37:56.955Z,14.68
2019-04-23T08:40:09.643Z,11.35
2019-04-23T08:42:45.648Z,11.35
2019-04-23T08:48:32.802Z,11.83
2019-04-23T08:55:49.359Z,8.48
2019-04-23T08:58:31.664Z,7.78
2019-04-23T09:00:58.611Z,10.70
2019-04-23T09:03:36.216Z,12.70
2019-04-23T09:08:28.147Z,10.63
2019-04-23T09:13:51.751Z,7.62
2019-04-23T09:15:58.353Z,16.62
2019-04-23T09:20:55.639Z,11.40
2019-04-23T09:23:34.903Z,11.33
2019-04-23T09:26:00.850Z,12.25
2019-04-23T09:31:14.515Z,12.70
2019-04-23T09:33:48.495Z,10.03
2019-04-23T09:36:22.301Z,11.93
2019-04-23T09:39:00.261Z,8.55
2019-04-23T09:41:43.528Z,10.05
2019-04-23T09:44:41.345Z,7.45
2019-04-23T09:49:39.758Z,9.55
2019-04-23T09:52:14.728Z,14.33
2019-04-23T09:54:51.077Z,10.60
2019-04-23T09:57:10.589Z,10.10
2019-04-23T09:59:47.254Z,11.95
2019-04-23T10:02:06.686Z,10.72
2019-04-23T10:04:32.020Z,10.98
2019-04-23T10:07:01.655Z,11.83
2019-04-23T10:09:18.850Z,13.30
2019-04-23T10:11:49.321Z,17.20
2019-04-23T10:14:18.727Z,9.58
2019-04-23T10:16:49.249Z,9.88
2019-04-23T10:19:19.003Z,11.97
2019-04-23T10:21:49.238Z,10.00
2019-04-23T10:24:19.163Z,11.57
2019-04-23T10:26:50.184Z,10.32
2019-04-23T10:29:20.922Z,9.33
2019-04-23T10:31:51.094Z,9.00
2019-04-23T10:34:21.138Z,10.00
2019-04-23T10:36:51.511Z,10.77
2019-04-23T10:39:26.313Z,11.78
2019-04-23T10:41:53.182Z,9.05
2019-04-23T10:44:25.595Z,12.70
2019-04-23T10:47:38.149Z,11.10
2019-04-23T10:50:35.475Z,11.68
2019-04-23T10:53:09.819Z,8.78
2019-04-23T10:55:34.956Z,15.83
2019-04-23T10:58:01.961Z,11.75
2019-04-23T11:00:37.551Z,13.55
2019-04-23T11:03:23.781Z,14.73
2019-04-23T11:08:10.258Z,11.60
2019-04-23T11:10:46.545Z,9.40
2019-04-23T11:13:31.511Z,10.50
2019-04-23T11:16:39.936Z,12.05
2019-04-23T11:18:38.312Z,11.60
2019-04-23T11:20:58.237Z,7.47
2019-04-23T11:23:31.273Z,14.73
2019-04-23T11:25:55.865Z,14.35
2019-04-23T11:28:33.221Z,13.50
2019-04-23T11:31:03.484Z,13.58
2019-04-23T11:33:39.153Z,14.13
2019-04-23T11:41:12.847Z,11.63
2019-04-23T11:46:26.067Z,14.65
2019-04-23T11:53:48.130Z,9.73
2019-04-23T11:56:26.918Z,8.38
2019-04-23T11:58:43.227Z,12.35
2019-04-23T12:01:37.114Z,13.85
2019-04-23T12:04:14.859Z,9.78
2019-04-23T12:06:52.863Z,9.50
2019-04-23T12:09:43.105Z,14.50
2019-04-23T12:12:17.205Z,15.93
2019-04-23T12:22:23.516Z,11.95
2019-04-23T12:27:31.246Z,16.25
2019-04-23T12:30:08.341Z,10.82
2019-04-23T12:37:40.722Z,12.55
2019-04-23T12:45:25.064Z,13.80
2019-04-23T12:52:46.878Z,9.93
2019-04-23T12:55:22.347Z,11.97
2019-04-23T12:57:46.855Z,12.00
2019-04-23T13:00:22.494Z,10.48
2019-04-23T13:05:21.634Z,9.20
2019-04-23T13:07:52.191Z,14.75
2019-04-23T13:10:22.187Z,12.85
2019-04-23T13:15:22.994Z,14.68
2019-04-23T13:23:03.116Z,13.83
2019-04-23T13:25:47.273Z,10.70
2019-04-23T13:30:46.642Z,11.08
2019-04-23T13:33:26.722Z,15.58
2019-04-23T13:35:53.267Z,12.98
2019-04-23T13:40:59.794Z,8.63
2019-04-23T13:43:31.814Z,12.70
2019-04-23T13:48:15.164Z,8.70
2019-04-23T13:53:35.342Z,15.43
2019-04-23T13:55:53.450Z,14.80
2019-04-23T13:58:22.701Z,15.32
2019-04-23T14:01:18.562Z,8.98
2019-04-23T14:06:10.849Z,16.67
2019-04-23T14:11:13.171Z,8.55
2019-04-23T14:13:46.337Z,11.12
2019-04-23T14:16:13.495Z,11.43
2019-04-23T14:18:51.551Z,12.07
2019-04-23T14:26:25.014Z,12.15
2019-04-23T14:28:43.042Z,14.45
2019-04-23T14:31:13.472Z,14.25
2019-04-23T14:33:58.404Z,12.03
2019-04-23T14:36:14.129Z,15.25
2019-04-23T14:38:43.981Z,13.95
2019-04-23T14:46:42.928Z,13.10
2019-04-23T14:48:51.673Z,10.87
2019-04-23T14:51:39.698Z,10.68
2019-04-23T14:53:48.473Z,8.83
2019-04-23T14:56:21.582Z,13.70
2019-04-23T14:59:05.997Z,12.33
2019-04-23T15:03:49.304Z,12.23
2019-04-23T15:06:43.743Z,17.17
2019-04-23T15:09:07.433Z,10.90
2019-04-23T15:13:53.882Z,19.50
2019-04-23T15:16:31.785Z,12.80
2019-04-23T15:19:11.012Z,11.38
2019-04-23T15:21:47.601Z,13.18
2019-04-23T15:24:03.953Z,13.35
2019-04-23T15:28:43.684Z,11.20
2019-04-23T15:37:12.461Z,15.85
2019-04-23T15:46:47.649Z,13.40
2019-04-23T15:54:19.466Z,11.93
2019-04-23T15:56:54.745Z,9.98
2019-04-23T16:01:40.554Z,11.97
2019-04-23T16:03:53.776Z,12.98
2019-04-23T16:06:26.764Z,14.37
2019-04-23T16:09:17.805Z,11.65
2019-04-23T16:11:59.658Z,10.63
2019-04-23T16:16:51.310Z,11.55
2019-04-23T16:19:47.938Z,12.88
2019-04-23T16:22:11.330Z,11.03
2019-04-23T16:24:51.910Z,10.75
2019-04-23T16:27:11.006Z,9.55
2019-04-23T16:30:08.650Z,11.22
2019-04-23T16:34:54.077Z,18.75
2019-04-23T16:37:20.225Z,8.78
2019-04-23T16:42:29.262Z,14.80
2019-04-23T16:45:07.466Z,14.40
2019-04-23T16:47:24.555Z,8.85
2019-04-23T16:52:26.617Z,10.35
2019-04-23T16:54:58.601Z,9.95
2019-04-23T16:57:39.006Z,14.33
2019-04-23T17:02:40.895Z,9.43
2019-04-23T17:05:01.628Z,13.75
2019-04-23T17:07:24.198Z,12.78
2019-04-23T17:10:07.873Z,11.00
2019-04-23T17:12:19.937Z,12.05
2019-04-23T17:15:28.003Z,11.88
2019-04-23T17:17:35.820Z,10.00
2019-04-23T17:20:12.738Z,10.60
2019-04-23T17:22:40.895Z,14.03
2019-04-23T17:27:41.548Z,9.73
2019-04-23T17:30:11.505Z,12.63
2019-04-23T17:33:04.137Z,17.20
2019-04-23T17:35:24.405Z,12.78
2019-04-23T17:38:00.742Z,12.43
2019-04-23T17:40:50.685Z,11.28
2019-04-23T17:48:13.351Z,11.38
2019-04-23T17:50:44.302Z,11.28
2019-04-23T17:53:21.608Z,12.03
2019-04-23T17:55:57.191Z,14.35
2019-04-23T17:58:25.270Z,20.32
2019-04-23T18:03:25.719Z,16.37
2019-04-23T18:06:05.666Z,11.53
2019-04-23T18:08:27.245Z,12.40
2019-04-23T18:11:09.612Z,12.28
2019-04-23T18:13:29.910Z,13.38
2019-04-23T18:16:04.067Z,11.75
2019-04-23T18:21:13.859Z,13.95
2019-04-23T18:23:41.304Z,15.28
2019-04-23T18:26:15.160Z,11.73
2019-04-23T18:28:46.037Z,12.70
2019-04-23T18:31:12.978Z,13.38
2019-04-23T18:36:26.211Z,15.23
2019-04-23T18:39:06.262Z,10.13
2019-04-23T18:41:37.882Z,14.62
2019-04-23T18:44:04.236Z,17.07
2019-04-23T18:46:37.062Z,11.75
2019-04-23T18:49:02.164Z,15.58
2019-04-23T18:51:36.743Z,13.35
2019-04-23T18:53:56.699Z,11.88
2019-04-23T18:56:51.497Z,13.65
2019-04-23T18:59:30.758Z,13.32
2019-04-23T19:01:50.109Z,14.45
2019-04-23T19:06:41.323Z,13.97
2019-04-23T19:10:03.639Z,16.37
2019-04-23T19:12:17.094Z,17.35
2019-04-23T19:22:19.566Z,15.10
2019-04-23T19:25:01.220Z,19.62
2019-04-23T19:32:08.508Z,18.73
2019-04-23T19:34:43.897Z,14.07
2019-04-23T19:37:24.578Z,12.98
2019-04-23T19:39:47.981Z,16.70
2019-04-23T19:42:20.402Z,17.45
2019-04-23T19:44:47.477Z,14.87
2019-04-23T19:47:25.722Z,12.00
2019-04-23T19:50:18.522Z,12.43
2019-04-23T19:52:34.592Z,16.77
2019-04-23T19:57:42.504Z,10.68
2019-04-23T20:04:55.214Z,13.53
2019-04-23T20:10:00.152Z,13.80
2019-04-23T20:14:58.516Z,15.05
2019-04-23T20:17:39.488Z,12.98
2019-04-23T20:20:21.377Z,15.05
2019-04-23T20:22:41.731Z,12.78
2019-04-23T20:25:20.925Z,13.00
2019-04-23T20:30:21.154Z,14.05
2019-04-23T20:32:35.262Z,16.52
2019-04-23T20:33:35.025Z,13.07
2019-04-23T20:38:09.406Z,14.10
2019-04-23T20:40:14.436Z,16.05
2019-04-23T20:42:39.040Z,16.40
2019-04-23T20:45:28.854Z,16.02
2019-04-23T20:47:50.324Z,14.47
2019-04-23T20:50:03.686Z,15.55
2019-04-23T20:52:41.181Z,13.25
2019-04-23T20:55:21.881Z,15.53
2019-04-23T20:57:55.612Z,13.88
2019-04-23T21:00:43.031Z,13.45
2019-04-23T21:06:01.825Z,14.50
2019-04-23T21:08:14.144Z,14.30
2019-04-23T21:15:51.379Z,17.00
2019-04-23T21:18:31.625Z,13.30
2019-04-23T21:31:02.201Z,16.65
2019-04-23T21:33:26.038Z,13.43
2019-04-23T21:36:13.410Z,12.28
2019-04-23T21:41:30.373Z,15.95
2019-04-23T21:46:28.030Z,16.23
2019-04-23T21:49:14.476Z,18.02
2019-04-23T21:51:38.498Z,15.18
2019-04-23T21:56:30.263Z,15.88
2019-04-23T22:06:38.872Z,14.33
2019-04-23T22:14:09.884Z,15.53
2019-04-23T22:16:40.863Z,16.48
2019-04-23T22:24:05.706Z,15.83
2019-04-23T22:26:38.097Z,18.65
2019-04-23T22:31:41.776Z,17.73
2019-04-23T22:36:49.762Z,14.28
2019-04-23T22:39:22.848Z,23.70
2019-04-23T22:41:51.932Z,17.37
2019-04-23T22:44:24.589Z,15.60
2019-04-23T22:46:52.040Z,18.70
2019-04-23T22:49:41.993Z,17.02
2019-04-23T22:52:06.515Z,18.73
2019-04-23T22:54:26.394Z,20.65
2019-04-23T22:56:54.836Z,20.47
2019-04-23T22:59:46.720Z,20.43
2019-04-23T23:02:00.389Z,20.08
2019-04-23T23:04:31.115Z,19.80
2019-04-23T23:07:01.163Z,16.27
2019-04-23T23:09:33.022Z,21.87
2019-04-23T23:14:27.326Z,17.45
2019-04-23T23:17:26.602Z,18.92
2019-04-23T23:19:42.661Z,16.40
2019-04-23T23:24:43.269Z,18.25
2019-04-23T23:27:18.384Z,19.02
2019-04-23T23:29:46.669Z,21.62
2019-04-23T23:32:07.773Z,15.78
2019-04-23T23:34:57.553Z,18.92
2019-04-23T23:37:07.474Z,20.37
2019-04-23T23:39:49.962Z,18.73
2019-04-23T23:42:09.676Z,18.52
2019-04-23T23:47:18.173Z,19.65
2019-04-23T23:49:43.954Z,16.73
2019-04-23T23:52:10.569Z,19.52
2019-04-23T23:54:43.791Z,18.23
